Terminal Aerodrome Forecast
Issued by NWS

Home | Current Version | Previous Version | Text Only | Print | Product List | Glossary On
Versions: 1 2 3 4 5 6 7 8 9 10 11 12 13 14 15
387
FTUS44 KLZK 271135
TAFPBF
TAF
KPBF 271135Z 2712/2812 20010KT P6SM SCT015 BKN050
      TEMPO 2712/2715 BKN015 OVC050
     FM271500 21012KT P6SM OVC015
     FM271800 20012G18KT P6SM BKN050
     FM280000 19008KT P6SM OVC050 PROB30 2810/2812 VRB15G30KT 3SM
      -TSRA BR OVC025CB=

USA.gov is the U.S. government's official web portal to all federal, state and local government web resources and services.